Overview Statistics Trail Chart Weather Telemetry Raw packets
 

This is the latest recevied weather packets stored in our database for station/object YD2CLX-11. If no packets are shown the sender has not sent any weather packets the latest 10 day(s).

<< 30 31 32 33 34 35 36 >>
Time Temp. Humidity Pressure Rain* Wind** Luminosity Snow
1788138053 33.33° C 56% 1001.7 hPa - - - -
1788137452 32.78° C 57% 1001.8 hPa - - - -
1788136861 31.67° C 60% 1001.7 hPa - - - -
1788136250 30.56° C 64% 1001.8 hPa - - - -
1788135648 30° C 66% 1001.7 hPa - - - -
1788135048 28.89° C 71% 1001.5 hPa - - - -
1788134446 27.78° C 74% 1001.4 hPa - - - -
1788133861 27.22° C 76% 1001.4 hPa - - - -
1788133244 26.67° C 80% 1001.3 hPa - - - -
1788132643 25.56° C 82% 1001.2 hPa - - - -
1788132042 25° C 83% 1001 hPa - - - -
1788131440 25° C 84% 1001 hPa - - - -
1788130839 24.44° C 85% 1000.8 hPa - - - -
1788130238 23.89° C 86% 1000.5 hPa - - - -
1788129636 23.33° C 87% 1000.4 hPa - - - -
1788129035 23.89° C 86% 1000.4 hPa - - - -
1788128434 23.89° C 86% 1000.1 hPa - - - -
1788127833 23.89° C 87% 1000.2 hPa - - - -
1788127231 23.33° C 87% 1000 hPa - - - -
1788126630 23.89° C 86% 999.9 hPa - - - -
1788126029 23.89° C 86% 999.8 hPa - - - -
1788125428 23.89° C 86% 999.7 hPa - - - -
1788124827 24.44° C 84% 999.6 hPa - - - -
1788124225 24.44° C 84% 999.5 hPa - - - -
1788123624 25° C 83% 999.3 hPa - - - -

* Rain since midnight (hover to see other rain measurements)
** Current wind speed in m/s (hover to see current wind gust speed)